This is the latest recevied weather packets stored in our database for station/object DG4MJS-10. If no packets are shown the sender has not sent any weather packets the latest 10 day(s).
| Time | Temp. | Humidity | Pressure | Rain* | Wind** | Luminosity | Snow |
|---|---|---|---|---|---|---|---|
| 1777725902 | 16.11° C | 45% | 1019.4 hPa | - | - | - | - |
| 1777725002 | 17.78° C | 37% | 1019.5 hPa | - | - | - | - |
| 1777724102 | 16.11° C | 44% | 1019.7 hPa | - | - | - | - |
| 1777723202 | 16.11° C | 41% | 1019.9 hPa | - | - | - | - |
| 1777722302 | 17.22° C | 38% | 1020 hPa | - | - | - | - |
| 1777721401 | 16.67° C | 43% | 1020.3 hPa | - | - | - | - |
| 1777720501 | 18.33° C | 32% | 1020.4 hPa | - | - | - | - |
| 1777719601 | 17.22° C | 40% | 1020.6 hPa | - | - | - | - |
| 1777718701 | 15° C | 52% | 1020.8 hPa | - | - | - | - |
| 1777717801 | 16.11° C | 50% | 1021 hPa | - | - | - | - |
| 1777716903 | 16.11° C | 49% | 1021.1 hPa | - | - | - | - |
| 1777716003 | 16.11° C | 50% | 1021.2 hPa | - | - | - | - |
| 1777715103 | 15° C | 55% | 1021.4 hPa | - | - | - | - |
| 1777714203 | 14.44° C | 56% | 1021.4 hPa | - | - | - | - |
| 1777713303 | 15° C | 54% | 1021.6 hPa | - | - | - | - |
| 1777712403 | 14.44° C | 55% | 1021.7 hPa | - | - | - | - |
| 1777711503 | 14.44° C | 54% | 1021.7 hPa | - | - | - | - |
| 1777710603 | 13.89° C | 54% | 1021.8 hPa | - | - | - | - |
| 1777709702 | 13.89° C | 54% | 1021.9 hPa | - | - | - | - |
| 1777708802 | 13.89° C | 54% | 1022.1 hPa | - | - | - | - |
| 1777707902 | 13.33° C | 54% | 1022.2 hPa | - | - | - | - |
| 1777707002 | 12.78° C | 53% | 1022.3 hPa | - | - | - | - |
| 1777706102 | 12.78° C | 54% | 1022.4 hPa | - | - | - | - |
| 1777705202 | 12.22° C | 55% | 1022.4 hPa | - | - | - | - |
| 1777704302 | 12.22° C | 54% | 1022.5 hPa | - | - | - | - |
* Rain since midnight (hover to see other rain measurements)
** Current wind speed in m/s (hover to see current wind gust speed)